KAXV/AXV METAR and TAF weather

Enter ICAO airport designator
Station Type Date Time Source
KAXV METAR 2020/02/16 19:56 UTC NOAA

KAXV 161956Z AUTO 28005KT 7SM CLR 03/M01 A3008 RMK AO2


Station Type Date Time Source
KAXV Decoded METAR 2020/02/16 19:56 UTC NOAA

Station name not available
Feb 16, 2020 - 02:56 PM EST / 2020.02.16 1956 UTC
Wind: from the W (280 degrees) at 6 MPH (5 KT):0
Visibility: 7 mile(s):0
Sky conditions: clear
Temperature: 37 F (3 C)
Dew Point: 30 F (-1 C)
Relative Humidity: 74%
Pressure (altimeter): 30.08 in. Hg (1018 hPa)
ob: KAXV 161956Z AUTO 28005KT 7SM CLR 03/M01 A3008 RMK AO2
cycle: 20

Station Type Date Time Source
KAXV TAF UTC NOAA

Error!

Example: see airport list